sensor_id;sensor_type;location;lat;lon;timestamp;temperature;humidity
4501;DHT22;2263;54.654;9.410;2022-07-25T00:01:54;20.60;74.60
4501;DHT22;2263;54.654;9.410;2022-07-25T00:04:23;20.60;74.60
4501;DHT22;2263;54.654;9.410;2022-07-25T00:06:50;20.60;74.60
4501;DHT22;2263;54.654;9.410;2022-07-25T00:09:17;20.60;74.70
4501;DHT22;2263;54.654;9.410;2022-07-25T00:11:45;20.60;74.60
4501;DHT22;2263;54.654;9.410;2022-07-25T00:14:12;20.60;74.70
4501;DHT22;2263;54.654;9.410;2022-07-25T00:16:39;20.50;74.70
4501;DHT22;2263;54.654;9.410;2022-07-25T00:19:06;20.50;74.60
4501;DHT22;2263;54.654;9.410;2022-07-25T00:21:33;20.50;74.60
4501;DHT22;2263;54.654;9.410;2022-07-25T00:24:01;20.50;74.70
4501;DHT22;2263;54.654;9.410;2022-07-25T00:26:28;20.50;74.70
4501;DHT22;2263;54.654;9.410;2022-07-25T00:28:55;20.50;74.70
4501;DHT22;2263;54.654;9.410;2022-07-25T00:31:22;20.50;74.70
4501;DHT22;2263;54.654;9.410;2022-07-25T00:33:50;20.50;74.70
4501;DHT22;2263;54.654;9.410;2022-07-25T00:36:17;20.50;74.90
4501;DHT22;2263;54.654;9.410;2022-07-25T00:38:44;20.50;74.90
4501;DHT22;2263;54.654;9.410;2022-07-25T00:41:12;20.50;74.70
4501;DHT22;2263;54.654;9.410;2022-07-25T00:43:43;20.50;74.70
4501;DHT22;2263;54.654;9.410;2022-07-25T00:46:17;20.50;74.90
4501;DHT22;2263;54.654;9.410;2022-07-25T00:48:49;20.40;74.80
4501;DHT22;2263;54.654;9.410;2022-07-25T00:51:17;20.50;74.90
4501;DHT22;2263;54.654;9.410;2022-07-25T00:53:44;20.50;75.00
4501;DHT22;2263;54.654;9.410;2022-07-25T00:56:12;20.50;75.00
4501;DHT22;2263;54.654;9.410;2022-07-25T00:58:39;20.40;75.00
4501;DHT22;2263;54.654;9.410;2022-07-25T01:01:06;20.50;75.20
4501;DHT22;2263;54.654;9.410;2022-07-25T01:03:34;20.40;75.10
4501;DHT22;2263;54.654;9.410;2022-07-25T01:06:02;20.40;75.10
4501;DHT22;2263;54.654;9.410;2022-07-25T01:08:29;20.40;75.10
4501;DHT22;2263;54.654;9.410;2022-07-25T01:10:57;20.40;75.00
4501;DHT22;2263;54.654;9.410;2022-07-25T01:13:24;20.40;75.00
4501;DHT22;2263;54.654;9.410;2022-07-25T01:15:51;20.40;75.00
4501;DHT22;2263;54.654;9.410;2022-07-25T01:18:18;20.40;75.00
4501;DHT22;2263;54.654;9.410;2022-07-25T01:20:46;20.40;75.20
4501;DHT22;2263;54.654;9.410;2022-07-25T01:23:13;20.40;75.20
4501;DHT22;2263;54.654;9.410;2022-07-25T01:25:40;20.40;75.10
4501;DHT22;2263;54.654;9.410;2022-07-25T01:28:07;20.40;75.10
4501;DHT22;2263;54.654;9.410;2022-07-25T01:30:35;20.40;75.10
4501;DHT22;2263;54.654;9.410;2022-07-25T01:33:02;20.40;75.10
4501;DHT22;2263;54.654;9.410;2022-07-25T01:35:33;20.40;75.20
4501;DHT22;2263;54.654;9.410;2022-07-25T01:38:00;20.40;75.20
4501;DHT22;2263;54.654;9.410;2022-07-25T01:40:27;20.40;75.20
4501;DHT22;2263;54.654;9.410;2022-07-25T01:42:54;20.40;75.20
4501;DHT22;2263;54.654;9.410;2022-07-25T01:45:21;20.40;75.20
4501;DHT22;2263;54.654;9.410;2022-07-25T01:47:49;20.40;75.20
4501;DHT22;2263;54.654;9.410;2022-07-25T01:50:16;20.40;75.20
4501;DHT22;2263;54.654;9.410;2022-07-25T01:52:43;20.40;75.20
4501;DHT22;2263;54.654;9.410;2022-07-25T01:55:11;20.30;75.00
4501;DHT22;2263;54.654;9.410;2022-07-25T01:57:39;20.30;75.10
4501;DHT22;2263;54.654;9.410;2022-07-25T02:00:16;20.30;75.10
4501;DHT22;2263;54.654;9.410;2022-07-25T02:02:44;20.30;75.10
4501;DHT22;2263;54.654;9.410;2022-07-25T02:05:12;20.30;75.10
4501;DHT22;2263;54.654;9.410;2022-07-25T02:07:40;20.30;75.10
4501;DHT22;2263;54.654;9.410;2022-07-25T02:10:07;20.30;75.10
4501;DHT22;2263;54.654;9.410;2022-07-25T02:12:35;20.30;75.10
4501;DHT22;2263;54.654;9.410;2022-07-25T02:15:02;20.30;75.20
4501;DHT22;2263;54.654;9.410;2022-07-25T02:17:29;20.30;75.10
4501;DHT22;2263;54.654;9.410;2022-07-25T02:19:57;20.30;75.20
4501;DHT22;2263;54.654;9.410;2022-07-25T02:22:24;20.30;75.20
4501;DHT22;2263;54.654;9.410;2022-07-25T02:24:51;20.30;75.20
4501;DHT22;2263;54.654;9.410;2022-07-25T02:27:19;20.30;75.20
4501;DHT22;2263;54.654;9.410;2022-07-25T02:29:47;20.30;75.30
4501;DHT22;2263;54.654;9.410;2022-07-25T02:32:14;20.30;75.30
4501;DHT22;2263;54.654;9.410;2022-07-25T02:34:41;20.30;75.30
4501;DHT22;2263;54.654;9.410;2022-07-25T02:37:09;20.20;75.20
4501;DHT22;2263;54.654;9.410;2022-07-25T02:39:36;20.20;75.20
4501;DHT22;2263;54.654;9.410;2022-07-25T02:42:04;20.20;75.20
4501;DHT22;2263;54.654;9.410;2022-07-25T02:44:34;20.20;75.20
4501;DHT22;2263;54.654;9.410;2022-07-25T02:47:05;20.20;75.20
4501;DHT22;2263;54.654;9.410;2022-07-25T02:49:35;20.20;75.20
4501;DHT22;2263;54.654;9.410;2022-07-25T02:52:02;20.20;75.10
4501;DHT22;2263;54.654;9.410;2022-07-25T02:54:30;20.20;75.20
4501;DHT22;2263;54.654;9.410;2022-07-25T02:56:57;20.20;75.20
4501;DHT22;2263;54.654;9.410;2022-07-25T02:59:24;20.20;75.30
4501;DHT22;2263;54.654;9.410;2022-07-25T03:01:58;20.20;75.20
4501;DHT22;2263;54.654;9.410;2022-07-25T03:04:25;20.20;75.20
4501;DHT22;2263;54.654;9.410;2022-07-25T03:06:52;20.20;75.20
4501;DHT22;2263;54.654;9.410;2022-07-25T03:09:20;20.20;75.20
4501;DHT22;2263;54.654;9.410;2022-07-25T03:11:47;20.20;75.30
4501;DHT22;2263;54.654;9.410;2022-07-25T03:14:16;20.20;75.30
4501;DHT22;2263;54.654;9.410;2022-07-25T03:16:43;20.20;75.40
4501;DHT22;2263;54.654;9.410;2022-07-25T03:19:10;20.10;76.00
4501;DHT22;2263;54.654;9.410;2022-07-25T03:21:39;20.10;75.20
4501;DHT22;2263;54.654;9.410;2022-07-25T03:24:06;20.10;75.20
4501;DHT22;2263;54.654;9.410;2022-07-25T03:26:34;20.10;75.20
4501;DHT22;2263;54.654;9.410;2022-07-25T03:29:01;20.10;75.30
4501;DHT22;2263;54.654;9.410;2022-07-25T03:31:28;20.10;75.20
4501;DHT22;2263;54.654;9.410;2022-07-25T03:33:56;20.10;75.90
4501;DHT22;2263;54.654;9.410;2022-07-25T03:36:23;20.10;75.30
4501;DHT22;2263;54.654;9.410;2022-07-25T03:38:50;20.10;75.30
4501;DHT22;2263;54.654;9.410;2022-07-25T03:41:17;20.10;75.40
4501;DHT22;2263;54.654;9.410;2022-07-25T03:43:44;20.10;75.30
4501;DHT22;2263;54.654;9.410;2022-07-25T03:46:11;20.10;75.20
4501;DHT22;2263;54.654;9.410;2022-07-25T03:48:39;20.10;75.30
4501;DHT22;2263;54.654;9.410;2022-07-25T03:51:06;20.10;75.20
4501;DHT22;2263;54.654;9.410;2022-07-25T03:53:34;20.10;75.20
4501;DHT22;2263;54.654;9.410;2022-07-25T03:56:21;20.00;75.10
4501;DHT22;2263;54.654;9.410;2022-07-25T03:58:49;20.10;75.30
4501;DHT22;2263;54.654;9.410;2022-07-25T04:01:16;20.10;75.20
4501;DHT22;2263;54.654;9.410;2022-07-25T04:03:45;20.00;75.10
4501;DHT22;2263;54.654;9.410;2022-07-25T04:06:12;20.00;75.20
4501;DHT22;2263;54.654;9.410;2022-07-25T04:08:39;20.00;75.20
4501;DHT22;2263;54.654;9.410;2022-07-25T04:11:07;20.00;75.20
4501;DHT22;2263;54.654;9.410;2022-07-25T04:13:34;20.00;75.20
4501;DHT22;2263;54.654;9.410;2022-07-25T04:16:01;20.00;75.20
4501;DHT22;2263;54.654;9.410;2022-07-25T04:18:30;20.00;75.20
4501;DHT22;2263;54.654;9.410;2022-07-25T04:21:00;20.00;75.20
4501;DHT22;2263;54.654;9.410;2022-07-25T04:23:27;20.00;75.10
4501;DHT22;2263;54.654;9.410;2022-07-25T04:25:55;20.00;75.00
4501;DHT22;2263;54.654;9.410;2022-07-25T04:28:23;20.00;75.10
4501;DHT22;2263;54.654;9.410;2022-07-25T04:30:50;20.00;75.00
4501;DHT22;2263;54.654;9.410;2022-07-25T04:33:18;20.00;75.10
4501;DHT22;2263;54.654;9.410;2022-07-25T04:35:46;20.00;75.10
4501;DHT22;2263;54.654;9.410;2022-07-25T04:38:16;20.00;75.00
4501;DHT22;2263;54.654;9.410;2022-07-25T04:40:43;20.00;74.90
4501;DHT22;2263;54.654;9.410;2022-07-25T04:43:11;20.00;74.80
4501;DHT22;2263;54.654;9.410;2022-07-25T04:45:38;20.00;74.90
4501;DHT22;2263;54.654;9.410;2022-07-25T04:48:05;20.00;74.90
4501;DHT22;2263;54.654;9.410;2022-07-25T04:50:33;20.00;74.80
4501;DHT22;2263;54.654;9.410;2022-07-25T04:53:00;20.00;74.60
4501;DHT22;2263;54.654;9.410;2022-07-25T04:55:27;20.00;74.80
4501;DHT22;2263;54.654;9.410;2022-07-25T04:57:54;20.00;74.70
4501;DHT22;2263;54.654;9.410;2022-07-25T05:00:22;20.10;74.80
4501;DHT22;2263;54.654;9.410;2022-07-25T05:02:49;20.00;74.70
4501;DHT22;2263;54.654;9.410;2022-07-25T05:05:18;20.10;74.80
4501;DHT22;2263;54.654;9.410;2022-07-25T05:07:47;20.10;74.80
4501;DHT22;2263;54.654;9.410;2022-07-25T05:10:15;20.10;74.80
4501;DHT22;2263;54.654;9.410;2022-07-25T05:12:42;20.00;74.70
4501;DHT22;2263;54.654;9.410;2022-07-25T05:15:10;20.10;74.80
4501;DHT22;2263;54.654;9.410;2022-07-25T05:17:37;20.10;74.80
4501;DHT22;2263;54.654;9.410;2022-07-25T05:20:05;20.10;74.80
4501;DHT22;2263;54.654;9.410;2022-07-25T05:22:32;20.10;74.70
4501;DHT22;2263;54.654;9.410;2022-07-25T05:24:59;20.10;74.70
4501;DHT22;2263;54.654;9.410;2022-07-25T05:27:28;20.10;74.80
4501;DHT22;2263;54.654;9.410;2022-07-25T05:29:55;20.10;74.70
4501;DHT22;2263;54.654;9.410;2022-07-25T05:32:22;20.10;74.80
4501;DHT22;2263;54.654;9.410;2022-07-25T05:34:50;20.10;74.80
4501;DHT22;2263;54.654;9.410;2022-07-25T05:37:18;20.10;75.40
4501;DHT22;2263;54.654;9.410;2022-07-25T05:39:45;20.10;74.70
4501;DHT22;2263;54.654;9.410;2022-07-25T05:42:15;20.20;74.80
4501;DHT22;2263;54.654;9.410;2022-07-25T05:44:42;20.20;74.70
4501;DHT22;2263;54.654;9.410;2022-07-25T05:47:10;20.20;74.80
4501;DHT22;2263;54.654;9.410;2022-07-25T05:49:37;20.20;74.70
4501;DHT22;2263;54.654;9.410;2022-07-25T05:52:05;20.20;74.60
4501;DHT22;2263;54.654;9.410;2022-07-25T05:54:39;20.20;74.60
4501;DHT22;2263;54.654;9.410;2022-07-25T05:57:09;20.20;74.60
4501;DHT22;2263;54.654;9.410;2022-07-25T05:59:36;20.20;74.50
4501;DHT22;2263;54.654;9.410;2022-07-25T06:02:03;20.20;74.50
4501;DHT22;2263;54.654;9.410;2022-07-25T06:04:31;20.20;74.50
4501;DHT22;2263;54.654;9.410;2022-07-25T06:06:58;20.20;74.50
4501;DHT22;2263;54.654;9.410;2022-07-25T06:09:25;20.20;74.40
4501;DHT22;2263;54.654;9.410;2022-07-25T06:11:52;20.20;74.40
4501;DHT22;2263;54.654;9.410;2022-07-25T06:14:27;20.20;74.40
4501;DHT22;2263;54.654;9.410;2022-07-25T06:16:55;20.30;74.40
4501;DHT22;2263;54.654;9.410;2022-07-25T06:19:22;20.30;74.40
4501;DHT22;2263;54.654;9.410;2022-07-25T06:21:49;20.30;74.40
4501;DHT22;2263;54.654;9.410;2022-07-25T06:24:17;20.30;74.40
4501;DHT22;2263;54.654;9.410;2022-07-25T06:26:44;20.30;74.40
4501;DHT22;2263;54.654;9.410;2022-07-25T06:29:11;20.30;74.30
4501;DHT22;2263;54.654;9.410;2022-07-25T06:31:38;20.30;74.30
4501;DHT22;2263;54.654;9.410;2022-07-25T06:34:07;20.30;74.40
4501;DHT22;2263;54.654;9.410;2022-07-25T06:36:35;20.30;74.30
4501;DHT22;2263;54.654;9.410;2022-07-25T06:39:02;20.30;74.30
4501;DHT22;2263;54.654;9.410;2022-07-25T06:41:29;20.30;74.30
4501;DHT22;2263;54.654;9.410;2022-07-25T06:43:57;20.30;75.00
4501;DHT22;2263;54.654;9.410;2022-07-25T06:46:24;20.30;74.30
4501;DHT22;2263;54.654;9.410;2022-07-25T06:48:56;20.40;74.30
4501;DHT22;2263;54.654;9.410;2022-07-25T06:51:23;20.40;74.40
4501;DHT22;2263;54.654;9.410;2022-07-25T06:53:51;20.40;74.50
4501;DHT22;2263;54.654;9.410;2022-07-25T06:56:18;20.40;74.40
4501;DHT22;2263;54.654;9.410;2022-07-25T06:58:45;20.40;74.40
4501;DHT22;2263;54.654;9.410;2022-07-25T07:01:12;20.40;74.40
4501;DHT22;2263;54.654;9.410;2022-07-25T07:03:40;20.40;74.40
4501;DHT22;2263;54.654;9.410;2022-07-25T07:06:08;20.40;74.40
4501;DHT22;2263;54.654;9.410;2022-07-25T07:08:35;20.40;74.20
4501;DHT22;2263;54.654;9.410;2022-07-25T07:11:04;20.40;74.30
4501;DHT22;2263;54.654;9.410;2022-07-25T07:13:31;20.40;74.20
4501;DHT22;2263;54.654;9.410;2022-07-25T07:15:59;20.40;74.20
4501;DHT22;2263;54.654;9.410;2022-07-25T07:18:26;20.50;74.20
4501;DHT22;2263;54.654;9.410;2022-07-25T07:20:53;20.50;74.30
4501;DHT22;2263;54.654;9.410;2022-07-25T07:23:20;20.50;74.20
4501;DHT22;2263;54.654;9.410;2022-07-25T07:25:50;20.50;74.20
4501;DHT22;2263;54.654;9.410;2022-07-25T07:28:17;20.50;74.20
4501;DHT22;2263;54.654;9.410;2022-07-25T07:30:45;20.50;74.00
4501;DHT22;2263;54.654;9.410;2022-07-25T07:33:32;20.50;74.10
4501;DHT22;2263;54.654;9.410;2022-07-25T07:36:00;20.50;74.10
4501;DHT22;2263;54.654;9.410;2022-07-25T07:38:28;20.50;74.10
4501;DHT22;2263;54.654;9.410;2022-07-25T07:40:55;20.50;74.10
4501;DHT22;2263;54.654;9.410;2022-07-25T07:43:22;20.50;74.10
4501;DHT22;2263;54.654;9.410;2022-07-25T07:45:59;20.60;74.10
4501;DHT22;2263;54.654;9.410;2022-07-25T07:48:28;20.60;74.10
4501;DHT22;2263;54.654;9.410;2022-07-25T07:50:56;20.60;74.20
4501;DHT22;2263;54.654;9.410;2022-07-25T07:53:24;20.60;74.20
4501;DHT22;2263;54.654;9.410;2022-07-25T07:56:09;20.60;74.10
4501;DHT22;2263;54.654;9.410;2022-07-25T07:58:38;20.60;74.10
4501;DHT22;2263;54.654;9.410;2022-07-25T08:01:05;20.60;74.00
4501;DHT22;2263;54.654;9.410;2022-07-25T08:03:33;20.60;74.10
4501;DHT22;2263;54.654;9.410;2022-07-25T08:06:00;20.70;74.20
4501;DHT22;2263;54.654;9.410;2022-07-25T08:08:27;20.70;74.30
4501;DHT22;2263;54.654;9.410;2022-07-25T08:10:57;20.70;74.30
4501;DHT22;2263;54.654;9.410;2022-07-25T08:13:29;20.70;74.30
4501;DHT22;2263;54.654;9.410;2022-07-25T08:16:00;20.80;74.30
4501;DHT22;2263;54.654;9.410;2022-07-25T08:18:30;20.80;74.60
4501;DHT22;2263;54.654;9.410;2022-07-25T08:21:00;20.80;74.30
4501;DHT22;2263;54.654;9.410;2022-07-25T08:23:33;20.90;74.40
4501;DHT22;2263;54.654;9.410;2022-07-25T08:26:01;20.90;74.60
4501;DHT22;2263;54.654;9.410;2022-07-25T08:28:28;20.90;74.40
4501;DHT22;2263;54.654;9.410;2022-07-25T08:30:55;21.00;74.60
4501;DHT22;2263;54.654;9.410;2022-07-25T08:33:25;21.00;74.50
4501;DHT22;2263;54.654;9.410;2022-07-25T08:35:53;21.00;74.60
4501;DHT22;2263;54.654;9.410;2022-07-25T08:38:22;21.10;74.50
4501;DHT22;2263;54.654;9.410;2022-07-25T08:40:50;21.20;74.80
4501;DHT22;2263;54.654;9.410;2022-07-25T08:43:18;21.20;74.60
4501;DHT22;2263;54.654;9.410;2022-07-25T08:45:52;21.30;74.80
4501;DHT22;2263;54.654;9.410;2022-07-25T08:48:24;21.30;74.80
4501;DHT22;2263;54.654;9.410;2022-07-25T08:50:53;21.40;74.60
4501;DHT22;2263;54.654;9.410;2022-07-25T08:53:20;21.40;74.50
4501;DHT22;2263;54.654;9.410;2022-07-25T08:56:04;21.40;74.50
4501;DHT22;2263;54.654;9.410;2022-07-25T08:58:39;21.40;74.70
4501;DHT22;2263;54.654;9.410;2022-07-25T09:01:07;21.40;74.70
4501;DHT22;2263;54.654;9.410;2022-07-25T09:03:34;21.40;75.00
4501;DHT22;2263;54.654;9.410;2022-07-25T09:06:21;21.40;74.80
4501;DHT22;2263;54.654;9.410;2022-07-25T09:08:56;21.50;74.90
4501;DHT22;2263;54.654;9.410;2022-07-25T09:11:32;21.50;74.90
4501;DHT22;2263;54.654;9.410;2022-07-25T09:14:05;21.50;75.10
4501;DHT22;2263;54.654;9.410;2022-07-25T09:16:41;21.50;75.00
4501;DHT22;2263;54.654;9.410;2022-07-25T09:19:18;21.50;75.10
4501;DHT22;2263;54.654;9.410;2022-07-25T09:21:58;21.50;75.10
4501;DHT22;2263;54.654;9.410;2022-07-25T09:24:25;21.60;75.20
4501;DHT22;2263;54.654;9.410;2022-07-25T09:26:55;21.60;75.70
4501;DHT22;2263;54.654;9.410;2022-07-25T09:29:31;21.60;75.80
4501;DHT22;2263;54.654;9.410;2022-07-25T09:32:01;21.70;76.00
4501;DHT22;2263;54.654;9.410;2022-07-25T09:34:41;21.70;75.60
4501;DHT22;2263;54.654;9.410;2022-07-25T09:37:11;21.80;75.90
4501;DHT22;2263;54.654;9.410;2022-07-25T09:39:43;21.80;75.90
4501;DHT22;2263;54.654;9.410;2022-07-25T09:42:14;21.90;76.00
4501;DHT22;2263;54.654;9.410;2022-07-25T09:44:42;21.90;76.00
4501;DHT22;2263;54.654;9.410;2022-07-25T09:47:11;22.00;75.90
4501;DHT22;2263;54.654;9.410;2022-07-25T09:49:43;22.00;76.00
4501;DHT22;2263;54.654;9.410;2022-07-25T09:52:11;22.10;75.80
4501;DHT22;2263;54.654;9.410;2022-07-25T09:54:39;22.10;76.00
4501;DHT22;2263;54.654;9.410;2022-07-25T09:57:06;22.20;76.00
4501;DHT22;2263;54.654;9.410;2022-07-25T09:59:34;22.20;76.00
4501;DHT22;2263;54.654;9.410;2022-07-25T10:02:40;22.30;76.00
4501;DHT22;2263;54.654;9.410;2022-07-25T10:05:14;22.30;76.20
4501;DHT22;2263;54.654;9.410;2022-07-25T10:07:45;22.40;76.10
4501;DHT22;2263;54.654;9.410;2022-07-25T10:10:30;22.50;76.40
4501;DHT22;2263;54.654;9.410;2022-07-25T10:13:04;22.50;76.20
4501;DHT22;2263;54.654;9.410;2022-07-25T10:15:49;22.60;75.60
4501;DHT22;2263;54.654;9.410;2022-07-25T10:18:21;22.70;75.80
4501;DHT22;2263;54.654;9.410;2022-07-25T10:20:54;22.70;75.60
4501;DHT22;2263;54.654;9.410;2022-07-25T10:23:26;22.80;75.80
4501;DHT22;2263;54.654;9.410;2022-07-25T10:26:11;22.80;75.70
4501;DHT22;2263;54.654;9.410;2022-07-25T10:28:47;22.80;76.00
4501;DHT22;2263;54.654;9.410;2022-07-25T10:33:48;22.90;75.70
4501;DHT22;2263;54.654;9.410;2022-07-25T10:36:17;22.90;75.80
4501;DHT22;2263;54.654;9.410;2022-07-25T10:38:45;23.00;75.80
4501;DHT22;2263;54.654;9.410;2022-07-25T10:41:15;23.00;75.70
4501;DHT22;2263;54.654;9.410;2022-07-25T10:43:44;23.00;75.70
4501;DHT22;2263;54.654;9.410;2022-07-25T10:46:18;23.00;75.70
4501;DHT22;2263;54.654;9.410;2022-07-25T10:48:57;23.10;75.60
4501;DHT22;2263;54.654;9.410;2022-07-25T10:51:31;23.10;75.90
4501;DHT22;2263;54.654;9.410;2022-07-25T10:54:16;23.10;75.90
4501;DHT22;2263;54.654;9.410;2022-07-25T10:56:57;23.20;76.00
4501;DHT22;2263;54.654;9.410;2022-07-25T10:59:34;23.20;75.80
4501;DHT22;2263;54.654;9.410;2022-07-25T11:02:04;23.20;75.80
4501;DHT22;2263;54.654;9.410;2022-07-25T11:04:32;23.20;75.70
4501;DHT22;2263;54.654;9.410;2022-07-25T11:07:08;23.20;75.60
4501;DHT22;2263;54.654;9.410;2022-07-25T11:09:35;23.20;75.70
4501;DHT22;2263;54.654;9.410;2022-07-25T11:12:03;23.20;75.70
4501;DHT22;2263;54.654;9.410;2022-07-25T11:14:33;23.30;75.90
4501;DHT22;2263;54.654;9.410;2022-07-25T11:17:22;23.30;75.40
4501;DHT22;2263;54.654;9.410;2022-07-25T11:22:28;23.40;75.50
4501;DHT22;2263;54.654;9.410;2022-07-25T11:24:56;23.40;75.50
4501;DHT22;2263;54.654;9.410;2022-07-25T11:27:34;23.40;75.60
4501;DHT22;2263;54.654;9.410;2022-07-25T11:30:06;23.40;75.50
4501;DHT22;2263;54.654;9.410;2022-07-25T11:32:40;23.40;75.50
4501;DHT22;2263;54.654;9.410;2022-07-25T11:35:10;23.40;75.50
4501;DHT22;2263;54.654;9.410;2022-07-25T11:37:39;23.40;75.30
4501;DHT22;2263;54.654;9.410;2022-07-25T11:40:07;23.40;75.20
4501;DHT22;2263;54.654;9.410;2022-07-25T11:42:43;23.40;74.90
4501;DHT22;2263;54.654;9.410;2022-07-25T11:45:24;23.40;75.10
4501;DHT22;2263;54.654;9.410;2022-07-25T11:48:09;23.40;75.10
4501;DHT22;2263;54.654;9.410;2022-07-25T11:50:38;23.40;75.20
4501;DHT22;2263;54.654;9.410;2022-07-25T11:53:08;23.40;75.30
4501;DHT22;2263;54.654;9.410;2022-07-25T11:55:38;23.40;75.20
4501;DHT22;2263;54.654;9.410;2022-07-25T11:58:16;23.40;75.30
4501;DHT22;2263;54.654;9.410;2022-07-25T12:00:45;23.40;75.20
4501;DHT22;2263;54.654;9.410;2022-07-25T12:03:17;23.40;75.30
4501;DHT22;2263;54.654;9.410;2022-07-25T12:05:47;23.40;75.00
4501;DHT22;2263;54.654;9.410;2022-07-25T12:08:16;23.40;75.00
4501;DHT22;2263;54.654;9.410;2022-07-25T12:10:45;23.40;75.00
4501;DHT22;2263;54.654;9.410;2022-07-25T12:13:28;23.40;75.10
4501;DHT22;2263;54.654;9.410;2022-07-25T12:15:58;23.30;75.00
4501;DHT22;2263;54.654;9.410;2022-07-25T12:18:26;23.30;75.10
4501;DHT22;2263;54.654;9.410;2022-07-25T12:20:53;23.30;75.10
4501;DHT22;2263;54.654;9.410;2022-07-25T12:23:21;23.30;75.10
4501;DHT22;2263;54.654;9.410;2022-07-25T12:25:48;23.30;75.00
4501;DHT22;2263;54.654;9.410;2022-07-25T12:28:15;23.40;75.10
4501;DHT22;2263;54.654;9.410;2022-07-25T12:30:44;23.40;75.10
4501;DHT22;2263;54.654;9.410;2022-07-25T12:33:12;23.40;74.90
4501;DHT22;2263;54.654;9.410;2022-07-25T12:35:40;23.50;74.90
4501;DHT22;2263;54.654;9.410;2022-07-25T12:38:08;23.50;74.90
4501;DHT22;2263;54.654;9.410;2022-07-25T12:40:37;23.50;74.80
4501;DHT22;2263;54.654;9.410;2022-07-25T12:43:04;23.60;74.80
4501;DHT22;2263;54.654;9.410;2022-07-25T12:45:31;23.60;74.80
4501;DHT22;2263;54.654;9.410;2022-07-25T12:47:59;23.60;74.60
4501;DHT22;2263;54.654;9.410;2022-07-25T12:50:26;23.50;74.60
4501;DHT22;2263;54.654;9.410;2022-07-25T12:52:53;23.60;74.90
4501;DHT22;2263;54.654;9.410;2022-07-25T12:55:21;23.50;74.70
4501;DHT22;2263;54.654;9.410;2022-07-25T12:57:49;23.50;74.60
4501;DHT22;2263;54.654;9.410;2022-07-25T13:00:18;23.50;74.50
4501;DHT22;2263;54.654;9.410;2022-07-25T13:02:47;23.50;74.60
4501;DHT22;2263;54.654;9.410;2022-07-25T13:05:15;23.50;74.60
4501;DHT22;2263;54.654;9.410;2022-07-25T13:07:42;23.50;74.60
4501;DHT22;2263;54.654;9.410;2022-07-25T13:10:10;23.50;74.60
4501;DHT22;2263;54.654;9.410;2022-07-25T13:12:38;23.50;74.60
4501;DHT22;2263;54.654;9.410;2022-07-25T13:15:06;23.50;74.70
4501;DHT22;2263;54.654;9.410;2022-07-25T13:17:33;23.50;74.60
4501;DHT22;2263;54.654;9.410;2022-07-25T13:20:01;23.50;74.80
4501;DHT22;2263;54.654;9.410;2022-07-25T13:22:29;23.50;75.00
4501;DHT22;2263;54.654;9.410;2022-07-25T13:24:56;23.50;75.30
4501;DHT22;2263;54.654;9.410;2022-07-25T13:27:23;23.50;75.60
4501;DHT22;2263;54.654;9.410;2022-07-25T13:29:50;23.50;75.70
4501;DHT22;2263;54.654;9.410;2022-07-25T13:32:21;23.60;76.00
4501;DHT22;2263;54.654;9.410;2022-07-25T13:34:48;23.50;76.00
4501;DHT22;2263;54.654;9.410;2022-07-25T13:37:16;23.60;75.90
4501;DHT22;2263;54.654;9.410;2022-07-25T13:39:43;23.50;75.80
4501;DHT22;2263;54.654;9.410;2022-07-25T13:42:10;23.50;75.60
4501;DHT22;2263;54.654;9.410;2022-07-25T13:44:37;23.50;75.60
4501;DHT22;2263;54.654;9.410;2022-07-25T13:47:05;23.50;75.60
4501;DHT22;2263;54.654;9.410;2022-07-25T13:49:32;23.50;75.30
4501;DHT22;2263;54.654;9.410;2022-07-25T13:51:59;23.50;75.10
4501;DHT22;2263;54.654;9.410;2022-07-25T13:54:26;23.50;74.80
4501;DHT22;2263;54.654;9.410;2022-07-25T13:56:54;23.50;75.00
4501;DHT22;2263;54.654;9.410;2022-07-25T13:59:21;23.50;75.00
4501;DHT22;2263;54.654;9.410;2022-07-25T14:01:48;23.40;74.90
4501;DHT22;2263;54.654;9.410;2022-07-25T14:04:16;23.40;74.80
4501;DHT22;2263;54.654;9.410;2022-07-25T14:06:44;23.40;74.90
4501;DHT22;2263;54.654;9.410;2022-07-25T14:09:14;23.40;75.10
4501;DHT22;2263;54.654;9.410;2022-07-25T14:11:42;23.50;75.10
4501;DHT22;2263;54.654;9.410;2022-07-25T14:14:09;23.50;75.00
4501;DHT22;2263;54.654;9.410;2022-07-25T14:16:36;23.50;75.10
4501;DHT22;2263;54.654;9.410;2022-07-25T14:19:03;23.50;75.00
4501;DHT22;2263;54.654;9.410;2022-07-25T14:21:31;23.60;74.80
4501;DHT22;2263;54.654;9.410;2022-07-25T14:23:58;23.50;74.80
4501;DHT22;2263;54.654;9.410;2022-07-25T14:26:25;23.60;74.70
4501;DHT22;2263;54.654;9.410;2022-07-25T14:28:54;23.60;74.80
4501;DHT22;2263;54.654;9.410;2022-07-25T14:31:21;23.60;74.60
4501;DHT22;2263;54.654;9.410;2022-07-25T14:33:49;23.60;74.50
4501;DHT22;2263;54.654;9.410;2022-07-25T14:36:16;23.60;74.50
4501;DHT22;2263;54.654;9.410;2022-07-25T14:38:45;23.60;74.40
4501;DHT22;2263;54.654;9.410;2022-07-25T14:41:14;23.60;74.40
4501;DHT22;2263;54.654;9.410;2022-07-25T14:43:42;23.60;74.30
4501;DHT22;2263;54.654;9.410;2022-07-25T14:46:09;23.60;74.20
4501;DHT22;2263;54.654;9.410;2022-07-25T14:48:37;23.60;74.10
4501;DHT22;2263;54.654;9.410;2022-07-25T14:51:05;23.60;74.40
4501;DHT22;2263;54.654;9.410;2022-07-25T14:53:33;23.60;74.40
4501;DHT22;2263;54.654;9.410;2022-07-25T14:56:02;23.70;74.40
4501;DHT22;2263;54.654;9.410;2022-07-25T14:58:30;23.70;74.20
4501;DHT22;2263;54.654;9.410;2022-07-25T15:00:57;23.70;74.10
4501;DHT22;2263;54.654;9.410;2022-07-25T15:03:25;23.70;74.20
4501;DHT22;2263;54.654;9.410;2022-07-25T15:05:52;23.70;74.20
4501;DHT22;2263;54.654;9.410;2022-07-25T15:08:19;23.70;74.10
4501;DHT22;2263;54.654;9.410;2022-07-25T15:10:47;23.70;74.00
4501;DHT22;2263;54.654;9.410;2022-07-25T15:13:14;23.70;73.90
4501;DHT22;2263;54.654;9.410;2022-07-25T15:15:58;23.80;73.90
4501;DHT22;2263;54.654;9.410;2022-07-25T15:18:26;23.80;74.50
4501;DHT22;2263;54.654;9.410;2022-07-25T15:20:54;23.80;73.70
4501;DHT22;2263;54.654;9.410;2022-07-25T15:23:24;23.80;73.80
4501;DHT22;2263;54.654;9.410;2022-07-25T15:25:56;23.80;73.80
4501;DHT22;2263;54.654;9.410;2022-07-25T15:28:31;23.80;73.80
4501;DHT22;2263;54.654;9.410;2022-07-25T15:30:59;23.80;73.90
4501;DHT22;2263;54.654;9.410;2022-07-25T15:33:26;23.80;73.70
4501;DHT22;2263;54.654;9.410;2022-07-25T15:35:53;23.80;73.70
4501;DHT22;2263;54.654;9.410;2022-07-25T15:38:21;23.80;73.50
4501;DHT22;2263;54.654;9.410;2022-07-25T15:40:48;23.80;73.40
4501;DHT22;2263;54.654;9.410;2022-07-25T15:43:19;23.80;73.50
4501;DHT22;2263;54.654;9.410;2022-07-25T15:45:46;23.80;73.20
4501;DHT22;2263;54.654;9.410;2022-07-25T15:48:15;23.80;73.50
4501;DHT22;2263;54.654;9.410;2022-07-25T15:50:46;23.80;73.20
4501;DHT22;2263;54.654;9.410;2022-07-25T15:53:13;23.80;73.30
4501;DHT22;2263;54.654;9.410;2022-07-25T15:55:41;23.80;73.30
4501;DHT22;2263;54.654;9.410;2022-07-25T15:58:10;23.80;73.00
4501;DHT22;2263;54.654;9.410;2022-07-25T16:00:38;23.80;73.00
4501;DHT22;2263;54.654;9.410;2022-07-25T16:03:06;23.80;73.20
4501;DHT22;2263;54.654;9.410;2022-07-25T16:05:34;23.80;73.20
4501;DHT22;2263;54.654;9.410;2022-07-25T16:08:01;23.80;73.00
4501;DHT22;2263;54.654;9.410;2022-07-25T16:10:31;23.80;73.20
4501;DHT22;2263;54.654;9.410;2022-07-25T16:12:59;23.80;73.30
4501;DHT22;2263;54.654;9.410;2022-07-25T16:15:26;23.90;73.30
4501;DHT22;2263;54.654;9.410;2022-07-25T16:17:54;23.80;73.10
4501;DHT22;2263;54.654;9.410;2022-07-25T16:20:28;23.80;73.30